Map

Track Data

SID SEASON NUMBER BASIN SUBBASIN NAME ISO_TIME NATURE LAT LON WMO_WIND WMO_PRES WMO_AGENCY TRACK_TYPE DIST2LAND LANDFALL IFLAG USA_AGENCY USA_ATCF_ID USA_LAT USA_LON USA_RECORD USA_STATUS USA_WIND USA_PRES USA_SSHS USA_R34_NE USA_R34_SE USA_R34_SW USA_R34_NW USA_R50_NE USA_R50_SE USA_R50_SW USA_R50_NW USA_R64_NE USA_R64_SE USA_R64_SW USA_R64_NW USA_POCI USA_ROCI USA_RMW USA_EYE TOKYO_LAT TOKYO_LON TOKYO_GRADE TOKYO_WIND TOKYO_PRES TOKYO_R50_DIR TOKYO_R50_LONG TOKYO_R50_SHORT TOKYO_R30_DIR TOKYO_R30_LONG TOKYO_R30_SHORT TOKYO_LAND CMA_LAT CMA_LON CMA_CAT CMA_WIND CMA_PRES HKO_LAT HKO_LON HKO_CAT HKO_WIND HKO_PRES NEWDELHI_LAT NEWDELHI_LON NEWDELHI_GRADE NEWDELHI_WIND NEWDELHI_PRES NEWDELHI_CI NEWDELHI_DP NEWDELHI_POCI REUNION_LAT REUNION_LON REUNION_TYPE REUNION_WIND REUNION_PRES REUNION_TNUM REUNION_CI REUNION_RMW REUNION_R34_NE REUNION_R34_SE REUNION_R34_SW REUNION_R34_NW REUNION_R50_NE REUNION_R50_SE REUNION_R50_SW REUNION_R50_NW REUNION_R64_NE REUNION_R64_SE REUNION_R64_SW REUNION_R64_NW BOM_LAT BOM_LON BOM_TYPE BOM_WIND BOM_PRES BOM_TNUM BOM_CI BOM_RMW BOM_R34_NE BOM_R34_SE BOM_R34_SW BOM_R34_NW BOM_R50_NE BOM_R50_SE BOM_R50_SW BOM_R50_NW BOM_R64_NE BOM_R64_SE BOM_R64_SW BOM_R64_NW BOM_ROCI BOM_POCI BOM_EYE BOM_POS_METHOD BOM_PRES_METHOD NADI_LAT NADI_LON NADI_CAT NADI_WIND NADI_PRES WELLINGTON_LAT WELLINGTON_LON WELLINGTON_WIND WELLINGTON_PRES DS824_LAT DS824_LON DS824_STAGE DS824_WIND DS824_PRES TD9636_LAT TD9636_LON TD9636_STAGE TD9636_WIND TD9636_PRES TD9635_LAT TD9635_LON TD9635_WIND TD9635_PRES TD9635_ROCI NEUMANN_LAT NEUMANN_LON NEUMANN_CLASS NEUMANN_WIND NEUMANN_PRES MLC_LAT MLC_LON MLC_CLASS MLC_WIND MLC_PRES USA_GUST BOM_GUST BOM_GUST_PER REUNION_GUST REUNION_GUST_PER USA_SEAHGT USA_SEARAD_NE USA_SEARAD_SE USA_SEARAD_SW USA_SEARAD_NW STORM_SPEED STORM_DIR
1989234N16244 1989 85 EP MM JULIETTE 1989-08-21 12:00:00 TS 15.7000 -115.800 25 1009 hurdat_epa main 1009 995 O_________O___ hurdat_epa EP131989 15.7000 -115.800 TD 25 1009 -1 15.7000 -115.800 1 25 8 322
1989234N16244 1989 85 EP MM JULIETTE 1989-08-21 15:00:00 TS 16.0009 -116.045 main 995 989 P_________P___ EP131989 16.0100 -116.032 TD 27 1009 -1 15.9736 -116.084 1 26 8 320
1989234N16244 1989 85 EP MM JULIETTE 1989-08-21 18:00:00 TS 16.2869 -116.319 30 1009 hurdat_epa main 989 987 O_________P___ hurdat_epa EP131989 16.3000 -116.300 TD 30 1009 -1 16.2477 -116.375 1 27 8 314
1989234N16244 1989 85 EP MM JULIETTE 1989-08-21 21:00:00 TS 16.5488 -116.640 main 994 992 P_________P___ EP131989 16.5575 -116.628 TD 30 1008 -1 16.5229 -116.678 1 28 8 308
1989234N16244 1989 85 EP MM JULIETTE 1989-08-22 00:00:00 TS 16.8000 -117.000 30 1008 hurdat_epa main 1000 1000 O_________O___ hurdat_epa EP131989 16.8000 -117.000 TD 30 1008 -1 16.8000 -117.000 1 30 9 305
1989234N16244 1989 85 EP MM JULIETTE 1989-08-22 03:00:00 TS 17.0517 -117.392 main 1008 1008 P_________P___ EP131989 17.0425 -117.408 TD 32 1006 -1 17.0791 -117.344 1 32 9 305
1989234N16244 1989 85 EP MM JULIETTE 1989-08-22 06:00:00 TS 17.3144 -117.775 35 1005 hurdat_epa main 1016 1001 O_________P___ hurdat_epa EP131989 17.3000 -117.800 TS 35 1005 0 17.3575 -117.700 1 35 9 309
1989234N16244 1989 85 EP MM JULIETTE 1989-08-22 09:00:00 TS 17.6080 -118.100 main 1008 1001 P_________P___ EP131989 17.5999 -118.115 TS 37 1003 0 17.6322 -118.056 1 37 8 314
1989234N16244 1989 85 EP MM JULIETTE 1989-08-22 12:00:00 TS 17.9000 -118.400 40 1002 hurdat_epa main 1001 998 O_________O___ hurdat_epa EP131989 17.9000 -118.400 TS 40 1002 0 17.9000 -118.400 2 40 8 314
1989234N16244 1989 85 EP MM JULIETTE 1989-08-22 15:00:00 TS 18.1583 -118.704 main 996 995 P_________P___ EP131989 18.1575 -118.700 TS 45 1000 0 18.1610 -118.715 2 43 8 311
1989234N16244 1989 85 EP MM JULIETTE 1989-08-22 18:00:00 TS 18.4037 -119.004 50 998 hurdat_epa main 1002 1001 O_________P___ hurdat_epa EP131989 18.4000 -119.000 TS 50 998 0 18.4147 -119.015 2 47 8 311
1989234N16244 1989 85 EP MM JULIETTE 1989-08-22 21:00:00 TS 18.6527 -119.297 main 1000 1000 P_________P___ EP131989 18.6499 -119.293 TS 52 996 0 18.6610 -119.308 2 51 8 311
1989234N16244 1989 85 EP MM JULIETTE 1989-08-23 00:00:00 TS 18.9000 -119.600 55 994 hurdat_epa main 1008 1008 O_________O___ hurdat_epa EP131989 18.9000 -119.600 TS 55 994 0 18.9000 -119.600 2 55 8 309
1989234N16244 1989 85 EP MM JULIETTE 1989-08-23 03:00:00 TS 19.1533 -119.948 main 1010 1010 P_________P___ EP131989 19.1576 -119.957 TS 55 993 0 19.1404 -119.920 2 53 8 307
1989234N16244 1989 85 EP MM JULIETTE 1989-08-23 06:00:00 TS 19.3932 -120.284 55 992 hurdat_epa main 1029 1029 O_________P___ hurdat_epa EP131989 19.4000 -120.300 TS 55 992 0 19.3726 -120.237 2 52 7 308
1989234N16244 1989 85 EP MM JULIETTE 1989-08-23 09:00:00 TS 19.6039 -120.563 main 1041 1034 P_________P___ EP131989 19.6074 -120.573 TS 52 993 0 19.5935 -120.536 2 51 6 310
1989234N16244 1989 85 EP MM JULIETTE 1989-08-23 12:00:00 TS 19.8000 -120.800 50 995 hurdat_epa main 1045 1045 O_________O___ hurdat_epa EP131989 19.8000 -120.800 TS 50 995 0 19.8000 -120.800 2 50 6 314
1989234N16244 1989 85 EP MM JULIETTE 1989-08-23 15:00:00 TS 20.0100 -121.014 main 1048 1037 P_________P___ EP131989 20.0075 -121.015 TS 47 997 0 20.0175 -121.011 2 46 6 317
1989234N16244 1989 85 EP MM JULIETTE 1989-08-23 18:00:00 TS 20.2043 -121.197 45 1000 hurdat_epa main 1043 1033 O_________P___ hurdat_epa EP131989 20.2000 -121.200 TS 45 1000 0 20.2171 -121.188 2 42 5 320
1989234N16244 1989 85 EP MM JULIETTE 1989-08-23 21:00:00 TS 20.3808 -121.349 main 1033 1032 P_________P___ EP131989 20.3799 -121.350 TS 40 1002 0 20.3832 -121.345 2 38 4 316
1989234N16244 1989 85 EP MM JULIETTE 1989-08-24 00:00:00 TS 20.5000 -121.500 35 1005 hurdat_epa main 1039 1039 O_________O___ hurdat_epa EP131989 20.5000 -121.500 TS 35 1005 0 20.5000 -121.500 2 35 4 294
1989234N16244 1989 85 EP MM JULIETTE 1989-08-24 03:00:00 TS 20.5295 -121.699 main 1052 1052 P_________P___ EP131989 20.5225 -121.700 TS 32 1006 -1 20.5504 -121.696 2 33 4 272
1989234N16244 1989 85 EP MM JULIETTE 1989-08-24 06:00:00 TS 20.5131 -121.897 30 1008 hurdat_epa main 1065 1065 O_________P___ hurdat_epa EP131989 20.5000 -121.900 TD 30 1008 -1 20.5526 -121.888 2 32 3 266
1989234N16244 1989 85 EP MM JULIETTE 1989-08-24 09:00:00 TS 20.5071 -122.064 main 1079 1079 P_________P___ EP131989 20.5000 -122.065 TD 30 1009 -1 20.5285 -122.061 2 31 3 267
1989234N16244 1989 85 EP MM JULIETTE 1989-08-24 12:00:00 TS 20.5000 -122.200 30 1010 hurdat_epa main 1086 1086 O_________O___ hurdat_epa EP131989 20.5000 -122.200 TD 30 1010 -1 20.5000 -122.200 1 30 2 269
1989234N16244 1989 85 EP MM JULIETTE 1989-08-24 15:00:00 TS 20.5020 -122.314 main 1092 1092 P_________P___ EP131989 20.5000 -122.323 TD 30 1010 -1 20.5080 -122.290 1 30 2 271
1989234N16244 1989 85 EP MM JULIETTE 1989-08-24 18:00:00 TS 20.5037 -122.386 30 1010 hurdat_epa main 1099 1099 O_________P___ hurdat_epa EP131989 20.5000 -122.400 TD 30 1010 -1 20.5149 -122.345 1 30 1 275
1989234N16244 1989 85 EP MM JULIETTE 1989-08-24 21:00:00 TS 20.5092 -122.400 main 1099 1099 P_________P___ EP131989 20.5075 -122.408 TD 30 1010 -1 20.5143 -122.377 1 30 0 0
1989234N16244 1989 85 EP MM JULIETTE 1989-08-25 00:00:00 TS 20.5000 -122.400 30 1010 hurdat_epa main 1099 1099 O_________O___ hurdat_epa EP131989 20.5000 -122.400 TD 30 1010 -1 20.5000 -122.400 1 30 1 229
1989234N16244 1989 85 EP MM JULIETTE 1989-08-25 03:00:00 TS 20.4646 -122.452 main 1106 1106 P_________P___ EP131989 20.4575 -122.450 TD 27 1010 -1 20.4858 -122.460 1 28 1 229
1989234N16244 1989 85 EP MM JULIETTE 1989-08-25 06:00:00 TS 20.4136 -122.502 25 1011 hurdat_epa main 1115 1115 O_________P___ hurdat_epa EP131989 20.4000 -122.500 TD 25 1011 -1 20.4545 -122.508 1 27 1 215
1989234N16244 1989 85 EP MM JULIETTE 1989-08-25 09:00:00 TS 20.3727 -122.524 main 1115 1115 P_________P___ EP131989 20.3650 -122.523 TD 25 1011 -1 20.3960 -122.528 1 26 1 0
1989234N16244 1989 85 EP MM JULIETTE 1989-08-25 12:00:00 TS 20.3000 -122.500 25 1011 hurdat_epa main 1123 1123 O_________O___ hurdat_epa EP131989 20.3000 -122.500 TD 25 1011 -1 20.3000 -122.500 1 25 2 154
1989234N16244 1989 85 EP MM JULIETTE 1989-08-25 15:00:00 TS 20.1680 -122.417 main 1125 1125 P_________P___ EP131989 20.1700 -122.417 TD 25 1011 -1 20.1620 -122.416 1 25 4 148
1989234N16244 1989 85 EP MM JULIETTE 1989-08-25 18:00:00 TS 20.0000 -122.300 25 1011 hurdat_epa main 1135 O_________O___ hurdat_epa EP131989 20.0000 -122.300 TD 25 1011 -1 20.0000 -122.300 1 25 4 146

About IBTrACS Database

This database is a web-friendly format of International Best Track Archive for Climate Stewardship (IBTrACS), a global best track data archive curated by NOAA dating back to 1842.

Updated: 2021-10-21